createdAt,value
2023-03-05T00:01:19.172Z,3.82
2023-03-05T00:03:48.613Z,3.80
2023-03-05T00:06:17.599Z,3.80
2023-03-05T00:08:46.106Z,3.79
2023-03-05T00:11:13.847Z,3.77
2023-03-05T00:13:42.465Z,3.75
2023-03-05T00:16:11.812Z,3.74
2023-03-05T00:18:40.798Z,3.72
2023-03-05T00:21:28.087Z,3.71
2023-03-05T00:23:57.057Z,3.71
2023-03-05T00:26:26.121Z,3.72
2023-03-05T00:28:55.299Z,3.73
2023-03-05T00:31:24.845Z,3.74
2023-03-05T00:33:53.932Z,3.74
2023-03-05T00:36:22.157Z,3.76
2023-03-05T00:38:50.044Z,3.75
2023-03-05T00:41:17.906Z,3.72
2023-03-05T00:43:45.887Z,3.73
2023-03-05T00:46:15.405Z,3.73
2023-03-05T00:48:43.686Z,3.74
2023-03-05T00:51:11.590Z,3.72
2023-03-05T00:53:39.450Z,3.72
2023-03-05T00:56:07.566Z,3.72
2023-03-05T00:58:35.415Z,3.71
2023-03-05T01:01:03.886Z,3.69
2023-03-05T01:03:32.915Z,3.68
2023-03-05T01:06:01.796Z,3.66
2023-03-05T01:08:29.781Z,3.63
2023-03-05T01:10:57.805Z,3.60
2023-03-05T01:13:25.476Z,3.57
2023-03-05T01:15:53.447Z,3.55
2023-03-05T01:18:21.173Z,3.55
2023-03-05T01:20:50.299Z,3.52
2023-03-05T01:23:18.212Z,3.50
2023-03-05T01:25:46.206Z,3.46
2023-03-05T01:28:14.326Z,3.47
2023-03-05T01:30:42.237Z,3.46
2023-03-05T01:33:10.056Z,3.47
2023-03-05T01:35:37.988Z,3.46
2023-03-05T01:38:05.947Z,3.46
2023-03-05T01:40:33.956Z,3.45
2023-03-05T01:43:22.900Z,3.43
2023-03-05T01:46:09.395Z,3.42
2023-03-05T01:48:37.707Z,3.42
2023-03-05T01:51:05.548Z,3.41
2023-03-05T01:53:33.622Z,3.37
2023-03-05T01:56:01.675Z,3.34
2023-03-05T01:58:29.614Z,3.34
2023-03-05T02:00:57.746Z,3.34
2023-03-05T02:03:26.409Z,3.35
2023-03-05T02:05:54.054Z,3.36
2023-03-05T02:08:22.297Z,3.37
2023-03-05T02:10:53.410Z,3.40
2023-03-05T02:13:23.046Z,3.42
2023-03-05T02:15:52.520Z,3.43
2023-03-05T02:18:23.172Z,3.44
2023-03-05T02:20:54.072Z,3.44
2023-03-05T02:23:23.282Z,3.45
2023-03-05T02:25:52.064Z,3.45
2023-03-05T02:28:24.841Z,3.42
2023-03-05T02:30:52.800Z,3.39
2023-03-05T02:33:21.047Z,3.36
2023-03-05T02:35:49.257Z,3.34
2023-03-05T02:38:18.586Z,3.34
2023-03-05T02:40:47.957Z,3.33
2023-03-05T02:43:15.699Z,3.31
2023-03-05T02:45:43.943Z,3.28
2023-03-05T02:48:12.885Z,3.25
2023-03-05T02:50:41.361Z,3.24
2023-03-05T02:53:09.325Z,3.23
2023-03-05T02:55:37.142Z,3.25
2023-03-05T02:58:04.963Z,3.25
2023-03-05T03:00:32.729Z,3.27
2023-03-05T03:03:00.484Z,3.27
2023-03-05T03:05:28.295Z,3.29
2023-03-05T03:07:56.224Z,3.31
2023-03-05T03:10:24.357Z,3.29
2023-03-05T03:12:52.319Z,3.28
2023-03-05T03:15:20.059Z,3.25
2023-03-05T03:17:48.298Z,3.19
2023-03-05T03:20:17.365Z,3.17
2023-03-05T03:22:45.967Z,3.13
2023-03-05T03:25:14.910Z,3.11
2023-03-05T03:27:42.781Z,3.09
2023-03-05T03:30:11.654Z,3.09
2023-03-05T03:32:39.868Z,3.10
2023-03-05T03:35:08.405Z,3.13
2023-03-05T03:37:36.271Z,3.15
2023-03-05T03:40:05.873Z,3.16
2023-03-05T03:42:33.864Z,3.16
2023-03-05T03:45:02.534Z,3.16
2023-03-05T03:47:31.323Z,3.15
2023-03-05T03:49:59.171Z,3.14
2023-03-05T03:52:27.829Z,3.11
2023-03-05T03:55:01.470Z,3.10
2023-03-05T03:57:30.317Z,3.07
2023-03-05T03:59:58.446Z,3.04
2023-03-05T04:02:26.708Z,3.03
2023-03-05T04:04:54.574Z,3.00
2023-03-05T04:07:22.293Z,2.97
2023-03-05T04:09:50.342Z,2.95
2023-03-05T04:12:18.453Z,2.95
2023-03-05T04:14:47.172Z,2.96
2023-03-05T04:17:15.403Z,2.98
2023-03-05T04:19:43.656Z,2.99
2023-03-05T04:22:12.781Z,2.99
2023-03-05T04:24:41.168Z,3.00
2023-03-05T04:27:09.045Z,2.99
2023-03-05T04:29:37.385Z,2.97
2023-03-05T04:32:05.765Z,2.94
2023-03-05T04:34:33.541Z,2.89
2023-03-05T04:37:02.209Z,2.88
2023-03-05T04:39:30.003Z,2.88
2023-03-05T04:41:57.767Z,2.85
2023-03-05T04:44:26.229Z,2.86
2023-03-05T04:46:55.804Z,2.86
2023-03-05T04:49:23.518Z,2.85
2023-03-05T04:51:51.855Z,2.86
2023-03-05T04:54:19.588Z,2.86
2023-03-05T04:56:47.375Z,2.85
2023-03-05T04:59:15.139Z,2.84
2023-03-05T05:01:43.567Z,2.83
2023-03-05T05:04:11.325Z,2.82
2023-03-05T05:06:39.086Z,2.82
2023-03-05T05:09:07.338Z,2.83
2023-03-05T05:11:35.160Z,2.83
2023-03-05T05:14:04.533Z,2.84
2023-03-05T05:16:32.402Z,2.84
2023-03-05T05:19:00.144Z,2.81
2023-03-05T05:21:28.114Z,2.80
2023-03-05T05:23:55.853Z,2.77
2023-03-05T05:26:23.740Z,2.74
2023-03-05T05:28:51.450Z,2.74
2023-03-05T05:31:20.013Z,2.76
2023-03-05T05:33:49.765Z,2.77
2023-03-05T05:36:19.291Z,2.79
2023-03-05T05:38:47.229Z,2.79
2023-03-05T05:41:16.601Z,2.79
2023-03-05T05:43:45.015Z,2.80
2023-03-05T05:46:15.378Z,2.78
2023-03-05T05:48:43.738Z,2.76
2023-03-05T05:51:16.432Z,2.73
2023-03-05T05:53:44.436Z,2.71
2023-03-05T05:56:12.691Z,2.70
2023-03-05T05:58:41.338Z,2.69
2023-03-05T06:01:13.139Z,2.66
2023-03-05T06:03:41.051Z,2.65
2023-03-05T06:06:12.659Z,2.64
2023-03-05T06:08:41.001Z,2.64
2023-03-05T06:11:08.703Z,2.66
2023-03-05T06:13:36.715Z,2.66
2023-03-05T06:16:06.140Z,2.68
2023-03-05T06:18:34.800Z,2.70
2023-03-05T06:21:05.173Z,2.69
2023-03-05T06:23:34.677Z,2.70
2023-03-05T06:26:03.772Z,2.69
2023-03-05T06:28:32.245Z,2.65
2023-03-05T06:31:07.433Z,2.61
2023-03-05T06:33:35.783Z,2.59
2023-03-05T06:36:07.737Z,2.56
2023-03-05T06:38:36.919Z,2.54
2023-03-05T06:41:06.765Z,2.55
2023-03-05T06:43:37.389Z,2.56
2023-03-05T06:46:16.939Z,2.57
2023-03-05T06:48:45.505Z,2.57
2023-03-05T06:51:14.696Z,2.59
2023-03-05T06:53:42.926Z,2.61
2023-03-05T06:56:11.465Z,2.63
2023-03-05T06:58:39.392Z,2.65
2023-03-05T07:01:07.602Z,2.66
2023-03-05T07:03:35.748Z,2.66
2023-03-05T07:06:07.823Z,2.65
2023-03-05T07:08:35.949Z,2.65
2023-03-05T07:11:04.244Z,2.66
2023-03-05T07:13:32.219Z,2.65
2023-03-05T07:15:59.999Z,2.65
2023-03-05T07:18:28.608Z,2.67
2023-03-05T07:20:56.494Z,2.69
2023-03-05T07:23:24.306Z,2.71
2023-03-05T07:25:51.955Z,2.72
2023-03-05T07:28:19.803Z,2.72
2023-03-05T07:30:54.829Z,2.74
2023-03-05T07:33:22.663Z,2.77
2023-03-05T07:35:50.343Z,2.80
2023-03-05T07:38:18.141Z,2.83
2023-03-05T07:40:45.920Z,2.85
2023-03-05T07:43:14.420Z,2.87
2023-03-05T07:45:45.198Z,2.89
2023-03-05T07:48:14.901Z,2.91
2023-03-05T07:50:43.295Z,2.94
2023-03-05T07:53:11.478Z,2.95
2023-03-05T07:55:45.723Z,2.95
2023-03-05T07:58:14.218Z,3.00
2023-03-05T08:00:41.996Z,3.06
2023-03-05T08:03:09.823Z,3.13
2023-03-05T08:05:42.002Z,3.20
2023-03-05T08:08:10.399Z,3.23
2023-03-05T08:10:38.543Z,3.24
2023-03-05T08:13:06.362Z,3.26
2023-03-05T08:15:34.277Z,3.26
2023-03-05T08:18:02.233Z,3.29
2023-03-05T08:20:30.203Z,3.32
2023-03-05T08:22:57.948Z,3.37
2023-03-05T08:25:25.662Z,3.42
2023-03-05T08:27:53.372Z,3.42
2023-03-05T08:30:22.423Z,3.47
2023-03-05T08:32:50.442Z,3.51
2023-03-05T08:35:18.366Z,3.61
2023-03-05T08:37:46.269Z,3.69
2023-03-05T08:40:14.344Z,3.75
2023-03-05T08:42:42.214Z,3.77
2023-03-05T08:45:13.136Z,3.78
2023-03-05T08:47:41.126Z,3.77
2023-03-05T08:50:09.264Z,3.74
2023-03-05T08:52:38.329Z,3.72
2023-03-05T08:55:06.195Z,3.69
2023-03-05T08:57:34.179Z,3.66
2023-03-05T09:00:01.986Z,3.70
2023-03-05T09:02:30.208Z,3.73
2023-03-05T09:04:57.975Z,3.76
2023-03-05T09:07:25.902Z,3.79
2023-03-05T09:09:53.929Z,3.83
2023-03-05T09:12:22.563Z,3.88
2023-03-05T09:14:50.653Z,3.91
2023-03-05T09:17:18.409Z,3.95
2023-03-05T09:19:46.208Z,4.01
2023-03-05T09:22:14.013Z,4.10
2023-03-05T09:24:43.503Z,4.20
2023-03-05T09:27:11.644Z,4.27
2023-03-05T09:29:40.830Z,4.31
2023-03-05T09:32:10.894Z,4.31
2023-03-05T09:34:38.620Z,4.34
2023-03-05T09:37:06.420Z,4.40
2023-03-05T09:39:34.480Z,4.40
2023-03-05T09:42:02.316Z,4.40
2023-03-05T09:44:32.881Z,4.41
2023-03-05T09:47:03.559Z,4.48
2023-03-05T09:49:31.284Z,4.60
2023-03-05T09:52:07.578Z,4.72
2023-03-05T09:54:38.775Z,4.81
2023-03-05T09:57:14.089Z,4.83
2023-03-05T09:59:44.866Z,4.85
2023-03-05T10:02:15.986Z,4.93
2023-03-05T10:04:48.036Z,5.04
2023-03-05T10:07:22.783Z,5.09
2023-03-05T10:09:56.586Z,5.11
2023-03-05T10:12:39.130Z,5.10
2023-03-05T10:15:21.475Z,5.15
2023-03-05T10:18:09.454Z,5.17
2023-03-05T10:20:37.241Z,5.30
2023-03-05T10:23:17.118Z,5.49
2023-03-05T10:26:04.420Z,5.59
2023-03-05T10:28:47.489Z,5.72
2023-03-05T10:31:15.440Z,5.82
2023-03-05T10:33:49.505Z,5.97
2023-03-05T10:36:20.232Z,6.21
2023-03-05T10:38:48.347Z,6.44
2023-03-05T10:41:43.353Z,6.57
2023-03-05T10:44:32.727Z,6.72
2023-03-05T10:47:00.796Z,6.88
2023-03-05T10:49:37.474Z,7.05
2023-03-05T10:52:18.675Z,7.16
2023-03-05T10:54:46.848Z,7.19
2023-03-05T10:57:18.316Z,7.24
2023-03-05T10:59:48.164Z,7.15
2023-03-05T11:02:16.253Z,7.17
2023-03-05T11:04:47.315Z,7.24
2023-03-05T11:07:15.141Z,7.27
2023-03-05T11:10:04.625Z,7.40
2023-03-05T11:12:36.406Z,7.56
2023-03-05T11:15:10.471Z,7.67
2023-03-05T11:17:38.438Z,7.80
2023-03-05T11:20:24.766Z,7.81
2023-03-05T11:23:11.238Z,7.84
2023-03-05T11:25:59.447Z,7.86
2023-03-05T11:28:33.413Z,7.92
2023-03-05T11:31:02.135Z,7.96
2023-03-05T11:33:30.757Z,7.96
2023-03-05T11:36:21.886Z,8.05
2023-03-05T11:39:19.568Z,8.05
2023-03-05T11:41:53.675Z,8.04
2023-03-05T11:44:28.118Z,8.00
2023-03-05T11:47:00.003Z,7.97
2023-03-05T11:49:29.142Z,7.97
2023-03-05T11:52:10.872Z,8.09
2023-03-05T11:54:44.680Z,8.24
2023-03-05T11:57:14.699Z,8.26
2023-03-05T11:59:43.041Z,8.29
2023-03-05T12:02:24.581Z,8.27
2023-03-05T12:04:52.697Z,8.20
2023-03-05T12:07:28.291Z,8.28
2023-03-05T12:09:56.236Z,8.26
2023-03-05T12:12:37.742Z,8.27
2023-03-05T12:15:17.851Z,8.16
2023-03-05T12:17:45.741Z,8.10
2023-03-05T12:20:17.679Z,7.95
2023-03-05T12:22:45.743Z,7.81
2023-03-05T12:25:28.396Z,7.76
2023-03-05T12:27:56.254Z,7.83
2023-03-05T12:30:49.996Z,7.87
2023-03-05T12:33:29.998Z,7.91
2023-03-05T12:36:16.684Z,7.97
2023-03-05T12:38:46.417Z,7.96
2023-03-05T12:41:34.716Z,7.98
2023-03-05T12:44:05.397Z,8.11
2023-03-05T12:46:40.044Z,8.20
2023-03-05T12:49:20.452Z,8.21
2023-03-05T12:51:49.290Z,8.28
2023-03-05T12:54:23.659Z,8.20
2023-03-05T12:56:52.767Z,8.13
2023-03-05T12:59:22.160Z,8.15
2023-03-05T13:01:59.408Z,8.17
2023-03-05T13:04:29.546Z,8.19
2023-03-05T13:07:01.730Z,8.03
2023-03-05T13:09:33.069Z,7.78
2023-03-05T13:12:02.491Z,7.53
2023-03-05T13:14:36.218Z,7.41
2023-03-05T13:17:23.972Z,7.41
2023-03-05T13:19:52.441Z,7.43
2023-03-05T13:22:21.456Z,7.43
2023-03-05T13:24:49.328Z,7.43
2023-03-05T13:27:30.071Z,7.45
2023-03-05T13:29:58.032Z,7.55
2023-03-05T13:32:30.336Z,7.68
2023-03-05T13:34:59.207Z,7.73
2023-03-05T13:37:28.357Z,7.78
2023-03-05T13:40:00.595Z,7.76
2023-03-05T13:42:32.481Z,7.76
2023-03-05T13:45:01.698Z,7.75
2023-03-05T13:47:33.772Z,7.71
2023-03-05T13:50:07.101Z,7.66
2023-03-05T13:52:36.791Z,7.62
2023-03-05T13:55:16.988Z,7.58
2023-03-05T13:57:47.270Z,7.59
2023-03-05T14:00:27.326Z,7.55
2023-03-05T14:02:58.669Z,7.48
2023-03-05T14:05:28.173Z,7.38
2023-03-05T14:07:56.761Z,7.29
2023-03-05T14:10:30.624Z,7.18
2023-03-05T14:12:59.315Z,7.01
2023-03-05T14:15:27.065Z,6.93
2023-03-05T14:18:15.800Z,6.90
2023-03-05T14:21:02.493Z,6.78
2023-03-05T14:23:34.241Z,6.68
2023-03-05T14:26:12.266Z,6.61
2023-03-05T14:28:40.736Z,6.50
2023-03-05T14:31:16.298Z,6.46
2023-03-05T14:33:44.353Z,6.41
2023-03-05T14:36:12.762Z,6.31
2023-03-05T14:38:41.799Z,6.29
2023-03-05T14:41:42.131Z,6.21
2023-03-05T14:44:15.071Z,6.03
2023-03-05T14:46:43.599Z,5.93
2023-03-05T14:49:11.346Z,5.82
2023-03-05T14:51:41.317Z,5.78
2023-03-05T14:54:18.170Z,5.77
2023-03-05T14:56:46.349Z,5.74
2023-03-05T14:59:14.111Z,5.68
2023-03-05T15:01:41.806Z,5.63
2023-03-05T15:04:10.103Z,5.59
2023-03-05T15:06:39.806Z,5.48
2023-03-05T15:09:08.117Z,5.38
2023-03-05T15:11:35.933Z,5.32
2023-03-05T15:14:03.847Z,5.28
2023-03-05T15:16:32.850Z,5.28
2023-03-05T15:19:02.933Z,5.25
2023-03-05T15:21:31.268Z,5.27
2023-03-05T15:23:59.156Z,5.29
2023-03-05T15:26:27.067Z,5.31
2023-03-05T15:28:54.860Z,5.27
2023-03-05T15:31:22.963Z,5.26
2023-03-05T15:33:50.801Z,5.24
2023-03-05T15:36:18.825Z,5.21
2023-03-05T15:38:48.049Z,5.15
2023-03-05T15:41:16.684Z,5.08
2023-03-05T15:43:44.543Z,5.02
2023-03-05T15:46:12.380Z,4.97
2023-03-05T15:48:40.386Z,4.92
2023-03-05T15:51:09.220Z,4.90
2023-03-05T15:53:36.981Z,4.86
2023-03-05T15:56:04.787Z,4.83
2023-03-05T15:58:32.514Z,4.80
2023-03-05T16:01:00.231Z,4.77
2023-03-05T16:03:29.220Z,4.74
2023-03-05T16:05:57.004Z,4.74
2023-03-05T16:08:25.059Z,4.73
2023-03-05T16:10:52.746Z,4.69
2023-03-05T16:13:21.719Z,4.66
2023-03-05T16:15:53.271Z,4.61
2023-03-05T16:18:21.884Z,4.58
2023-03-05T16:20:49.720Z,4.55
2023-03-05T16:23:17.852Z,4.54
2023-03-05T16:25:46.307Z,4.55
2023-03-05T16:28:14.415Z,4.53
2023-03-05T16:30:42.248Z,4.51
2023-03-05T16:33:10.357Z,4.50
2023-03-05T16:35:38.226Z,4.48
2023-03-05T16:38:07.092Z,4.47
2023-03-05T16:41:05.590Z,4.46
2023-03-05T16:43:24.690Z,4.48
2023-03-05T16:45:52.661Z,4.49
2023-03-05T16:48:20.406Z,4.52
2023-03-05T16:50:48.269Z,4.55
2023-03-05T16:53:16.043Z,4.57
2023-03-05T16:55:46.765Z,4.58
2023-03-05T16:58:14.516Z,4.57
2023-03-05T17:00:42.573Z,4.56
2023-03-05T17:03:10.760Z,4.55
2023-03-05T17:05:38.894Z,4.53
2023-03-05T17:08:06.892Z,4.50
2023-03-05T17:10:34.718Z,4.47
2023-03-05T17:13:02.490Z,4.44
2023-03-05T17:15:30.320Z,4.39
2023-03-05T17:17:58.089Z,4.34
2023-03-05T17:20:25.902Z,4.32
2023-03-05T17:22:53.760Z,4.31
2023-03-05T17:25:21.883Z,4.30
2023-03-05T17:27:49.649Z,4.29
2023-03-05T17:30:17.556Z,4.30
2023-03-05T17:32:45.375Z,4.28
2023-03-05T17:35:17.925Z,4.27
2023-03-05T17:37:45.680Z,4.26
2023-03-05T17:40:15.668Z,4.26
2023-03-05T17:42:44.760Z,4.26
2023-03-05T17:45:13.021Z,4.25
2023-03-05T17:47:40.748Z,4.24
2023-03-05T17:50:09.288Z,4.22
2023-03-05T17:52:41.356Z,4.23
2023-03-05T17:55:10.783Z,4.23
2023-03-05T17:57:41.861Z,4.23
2023-03-05T18:00:29.373Z,4.22
2023-03-05T18:03:00.727Z,4.22
2023-03-05T18:05:29.020Z,4.21
2023-03-05T18:07:57.310Z,4.18
2023-03-05T18:10:26.463Z,4.17
2023-03-05T18:12:54.938Z,4.18
2023-03-05T18:15:23.358Z,4.19
2023-03-05T18:17:51.773Z,4.21
2023-03-05T18:20:27.825Z,4.22
2023-03-05T18:22:56.601Z,4.23
2023-03-05T18:25:30.809Z,4.23
2023-03-05T18:27:59.487Z,4.23
2023-03-05T18:30:27.737Z,4.23
2023-03-05T18:32:56.123Z,4.23
2023-03-05T18:35:24.738Z,4.22
2023-03-05T18:37:52.548Z,4.20
2023-03-05T18:40:22.829Z,4.19
2023-03-05T18:42:50.929Z,4.18
2023-03-05T18:45:20.302Z,4.16
2023-03-05T18:47:49.179Z,4.13
2023-03-05T18:50:18.661Z,4.11
2023-03-05T18:52:46.533Z,4.10
2023-03-05T18:55:18.494Z,4.10
2023-03-05T18:57:46.422Z,4.09
2023-03-05T19:00:15.329Z,4.07
2023-03-05T19:02:43.081Z,4.04
2023-03-05T19:05:12.307Z,4.02
2023-03-05T19:07:40.210Z,3.97
2023-03-05T19:10:10.336Z,3.94
2023-03-05T19:12:45.615Z,3.92
2023-03-05T19:15:13.514Z,3.90
2023-03-05T19:17:41.464Z,3.88
2023-03-05T19:20:12.272Z,3.88
2023-03-05T19:22:40.226Z,3.86
2023-03-05T19:25:08.677Z,3.83
2023-03-05T19:27:37.123Z,3.80
2023-03-05T19:30:05.708Z,3.77
2023-03-05T19:32:34.291Z,3.74
2023-03-05T19:35:02.279Z,3.72
2023-03-05T19:37:31.038Z,3.69
2023-03-05T19:39:58.926Z,3.66
2023-03-05T19:42:27.851Z,3.63
2023-03-05T19:44:56.505Z,3.61
2023-03-05T19:47:26.507Z,3.61
2023-03-05T19:49:54.349Z,3.59
2023-03-05T19:52:22.238Z,3.57
2023-03-05T19:54:50.037Z,3.55
2023-03-05T19:57:17.850Z,3.53
2023-03-05T19:59:46.900Z,3.51
2023-03-05T20:02:19.389Z,3.50
2023-03-05T20:04:47.981Z,3.49
2023-03-05T20:07:16.119Z,3.47
2023-03-05T20:09:43.890Z,3.45
2023-03-05T20:12:11.954Z,3.44
2023-03-05T20:14:39.836Z,3.42
2023-03-05T20:17:07.599Z,3.40
2023-03-05T20:19:36.536Z,3.38
2023-03-05T20:22:04.272Z,3.34
2023-03-05T20:24:32.264Z,3.31
2023-03-05T20:27:00.750Z,3.27
2023-03-05T20:29:28.817Z,3.25
2023-03-05T20:31:57.056Z,3.25
2023-03-05T20:34:27.095Z,3.27
2023-03-05T20:36:54.961Z,3.29
2023-03-05T20:39:22.835Z,3.31
2023-03-05T20:41:51.336Z,3.33
2023-03-05T20:44:19.497Z,3.34
2023-03-05T20:46:59.736Z,3.33
2023-03-05T20:49:27.964Z,3.31
2023-03-05T20:51:55.707Z,3.32
2023-03-05T20:54:27.265Z,3.31
2023-03-05T20:56:55.060Z,3.32
2023-03-05T20:59:23.417Z,3.31
2023-03-05T21:01:51.137Z,3.30
2023-03-05T21:04:19.040Z,3.28
2023-03-05T21:06:52.834Z,3.27
2023-03-05T21:09:20.610Z,3.26
2023-03-05T21:11:48.371Z,3.26
2023-03-05T21:14:16.175Z,3.24
2023-03-05T21:16:43.958Z,3.20
2023-03-05T21:19:11.789Z,3.16
2023-03-05T21:21:40.490Z,3.15
2023-03-05T21:24:09.570Z,3.15
2023-03-05T21:26:37.466Z,3.16
2023-03-05T21:29:05.199Z,3.17
2023-03-05T21:31:33.301Z,3.16
2023-03-05T21:34:01.023Z,3.13
2023-03-05T21:36:28.914Z,3.12
2023-03-05T21:38:58.407Z,3.11
2023-03-05T21:41:27.660Z,3.10
2023-03-05T21:43:55.464Z,3.11
2023-03-05T21:46:23.532Z,3.10
2023-03-05T21:48:51.435Z,3.08
2023-03-05T21:51:20.553Z,3.06
2023-03-05T21:53:49.492Z,3.05
2023-03-05T21:56:18.243Z,3.05
2023-03-05T21:58:46.534Z,3.06
2023-03-05T22:01:14.986Z,3.07
2023-03-05T22:03:42.768Z,3.09
2023-03-05T22:06:14.024Z,3.11
2023-03-05T22:08:41.802Z,3.15
2023-03-05T22:11:10.561Z,3.19
2023-03-05T22:13:38.405Z,3.21
2023-03-05T22:16:07.108Z,3.24
2023-03-05T22:18:34.929Z,3.28
2023-03-05T22:21:03.614Z,3.31
2023-03-05T22:23:34.158Z,3.35
2023-03-05T22:26:03.389Z,3.35
2023-03-05T22:28:31.676Z,3.37
2023-03-05T22:31:00.688Z,3.39
2023-03-05T22:33:29.716Z,3.42
2023-03-05T22:35:58.816Z,3.43
2023-03-05T22:38:26.516Z,3.44
2023-03-05T22:40:54.859Z,3.44
2023-03-05T22:43:22.540Z,3.42
2023-03-05T22:45:50.487Z,3.39
2023-03-05T22:48:18.223Z,3.37
2023-03-05T22:50:46.157Z,3.35
2023-03-05T22:53:14.083Z,3.34
2023-03-05T22:55:42.455Z,3.32
2023-03-05T22:58:10.168Z,3.31
2023-03-05T23:00:37.980Z,3.31
2023-03-05T23:03:06.704Z,3.30
2023-03-05T23:05:35.454Z,3.28
2023-03-05T23:08:03.235Z,3.26
2023-03-05T23:10:31.105Z,3.24
2023-03-05T23:13:00.751Z,3.23
2023-03-05T23:15:30.492Z,3.22
2023-03-05T23:17:58.854Z,3.22
2023-03-05T23:20:28.482Z,3.21
2023-03-05T23:22:59.433Z,3.21
2023-03-05T23:25:28.933Z,3.22
2023-03-05T23:27:59.014Z,3.22
2023-03-05T23:30:28.430Z,3.24
2023-03-05T23:32:57.571Z,3.25
2023-03-05T23:35:36.428Z,3.24
2023-03-05T23:38:05.627Z,3.26
2023-03-05T23:40:35.057Z,3.30
2023-03-05T23:43:02.990Z,3.34
2023-03-05T23:45:30.969Z,3.38
2023-03-05T23:47:58.766Z,3.42
2023-03-05T23:50:32.814Z,3.45
2023-03-05T23:53:02.293Z,3.45
2023-03-05T23:55:34.778Z,3.47
2023-03-05T23:58:03.206Z,3.49
